Time;durP1;ratioP1;P1;durP2;ratioP2;P2;SDS_P1;SDS_P2;PMS_P1;PMS_P2;Temp;Humidity;BMP_temperature;BMP_pressure;BME280_temperature;BME280_humidity;BME280_pressure;Samples;Min_cycle;Max_cycle;Signal;HPM_P1;HPM_P2
2021/07/10 00:01:53;;;;;;;8.48;7.00;;;15.80;71.60;;;;;;4981845;28;95849;-54
2021/07/10 00:04:23;;;;;;;9.05;6.88;;;15.90;71.40;;;;;;4987680;28;95989;-52
2021/07/10 00:06:54;;;;;;;8.18;6.38;;;15.80;71.00;;;;;;4989459;28;95850;-53
2021/07/10 00:09:27;;;;;;;9.27;7.18;;;15.80;71.00;;;;;;4988462;28;99057;-53
2021/07/10 00:11:59;;;;;;;8.85;7.10;;;15.70;70.70;;;;;;4973408;28;95579;-53
2021/07/10 00:14:31;;;;;;;9.93;7.40;;;15.80;70.60;;;;;;4988610;28;95829;-53
2021/07/10 00:17:02;;;;;;;7.25;5.88;;;15.70;70.50;;;;;;4988365;28;95877;-50
2021/07/10 00:19:33;;;;;;;9.98;6.50;;;15.70;70.40;;;;;;4988160;28;95863;-53
2021/07/10 00:22:03;;;;;;;9.63;7.47;;;15.70;70.30;;;;;;4992158;28;95842;-51
2021/07/10 00:24:34;;;;;;;6.57;5.30;;;15.70;70.40;;;;;;4989094;28;95576;-51
2021/07/10 00:27:05;;;;;;;8.13;6.35;;;15.70;70.40;;;;;;4991921;28;95834;-50
2021/07/10 00:29:36;;;;;;;10.52;7.03;;;15.60;70.40;;;;;;4990713;28;95344;-52
2021/07/10 00:32:06;;;;;;;7.07;6.10;;;15.60;70.40;;;;;;4985803;28;95789;-53
2021/07/10 00:34:36;;;;;;;9.20;6.57;;;15.60;71.00;;;;;;4988081;28;95715;-52
2021/07/10 00:37:07;;;;;;;8.30;6.85;;;15.60;70.40;;;;;;4988252;28;95870;-53
2021/07/10 00:39:39;;;;;;;7.80;6.45;;;15.60;70.40;;;;;;5003913;28;95296;-52
2021/07/10 00:42:16;;;;;;;6.53;5.65;;;15.50;70.40;;;;;;5000072;28;96000;-51
2021/07/10 00:44:47;;;;;;;7.65;6.28;;;15.50;70.30;;;;;;4992518;28;96464;-53
2021/07/10 00:47:18;;;;;;;7.45;6.47;;;15.50;70.40;;;;;;4982708;28;95917;-54
2021/07/10 00:49:50;;;;;;;7.03;6.25;;;15.50;70.50;;;;;;4991746;28;95320;-52
2021/07/10 00:52:21;;;;;;;7.83;5.83;;;15.50;70.50;;;;;;4977847;28;95543;-50
2021/07/10 00:54:53;;;;;;;7.88;6.15;;;15.40;70.40;;;;;;5005366;28;95866;-51
2021/07/10 00:57:24;;;;;;;7.30;6.43;;;15.40;70.50;;;;;;4990557;28;95881;-52
2021/07/10 00:59:56;;;;;;;6.85;6.15;;;15.40;70.50;;;;;;4995759;28;95907;-54
2021/07/10 01:02:28;;;;;;;6.72;5.90;;;15.40;70.40;;;;;;4985987;28;95370;-51
2021/07/10 01:04:58;;;;;;;8.02;6.32;;;15.40;70.50;;;;;;4987847;28;95762;-52
2021/07/10 01:07:29;;;;;;;8.07;6.68;;;15.40;70.50;;;;;;4986072;28;95970;-52
2021/07/10 01:10:02;;;;;;;7.50;5.88;;;15.40;70.50;;;;;;4988026;28;95418;-53
2021/07/10 01:12:34;;;;;;;9.27;6.18;;;15.40;70.40;;;;;;4989627;28;98491;-50
2021/07/10 01:15:06;;;;;;;6.50;5.80;;;15.40;70.50;;;;;;4985296;28;95514;-50
2021/07/10 01:17:37;;;;;;;8.75;5.97;;;15.40;70.40;;;;;;4993411;28;96666;-52
2021/07/10 01:20:10;;;;;;;7.78;6.57;;;15.40;70.50;;;;;;4988358;28;96231;-52
2021/07/10 01:22:41;;;;;;;7.05;5.75;;;15.40;70.40;;;;;;4985077;28;95332;-53
2021/07/10 01:25:18;;;;;;;7.85;6.20;;;15.30;70.40;;;;;;4988049;28;95773;-53
2021/07/10 01:27:51;;;;;;;6.55;5.60;;;15.30;70.50;;;;;;4987480;28;95960;-51
2021/07/10 01:30:22;;;;;;;6.93;5.75;;;15.40;70.60;;;;;;4988597;28;95470;-50
2021/07/10 01:32:54;;;;;;;6.32;5.45;;;15.40;70.60;;;;;;4995654;28;102676;-54
2021/07/10 01:35:25;;;;;;;6.65;5.63;;;15.40;70.60;;;;;;4989751;28;96063;-52
2021/07/10 01:37:56;;;;;;;7.28;6.03;;;15.40;71.00;;;;;;5000426;27;96570;-53
2021/07/10 01:40:29;;;;;;;6.85;6.13;;;15.40;70.60;;;;;;4993967;28;95978;-49
2021/07/10 01:43:04;;;;;;;5.88;5.28;;;15.40;70.60;;;;;;4978412;28;96246;-55
2021/07/10 01:45:39;;;;;;;6.13;5.40;;;15.40;70.60;;;;;;4995821;28;95989;-54
2021/07/10 01:48:10;;;;;;;6.50;5.60;;;15.40;70.60;;;;;;4988634;28;96051;-50
2021/07/10 01:50:43;;;;;;;9.80;5.93;;;15.40;70.60;;;;;;5006895;28;96426;-53
2021/07/10 01:53:17;;;;;;;7.47;5.53;;;15.40;70.70;;;;;;4986643;28;96740;-54
2021/07/10 01:55:48;;;;;;;6.22;5.35;;;15.40;70.70;;;;;;4986559;28;95767;-50
2021/07/10 01:58:19;;;;;;;6.82;5.90;;;15.40;70.70;;;;;;4984775;28;96425;-53
2021/07/10 02:00:50;;;;;;;7.00;5.30;;;15.50;70.80;;;;;;4991517;28;96098;-54
2021/07/10 02:03:20;;;;;;;6.20;5.43;;;15.40;70.80;;;;;;4991555;28;95587;-51
2021/07/10 02:05:50;;;;;;;6.68;5.68;;;15.50;70.90;;;;;;4999912;28;95948;-51
2021/07/10 02:08:20;;;;;;;6.90;5.90;;;15.50;70.80;;;;;;5002097;28;98101;-50
2021/07/10 02:10:51;;;;;;;6.13;5.30;;;15.50;70.80;;;;;;4986882;28;95431;-53
2021/07/10 02:13:21;;;;;;;;;;;15.50;70.80;;;;;;4985013;28;95319;-53
2021/07/10 02:15:53;;;;;;;7.70;6.03;;;15.50;70.80;;;;;;4990779;28;95839;-50
2021/07/10 02:18:25;;;;;;;7.13;5.70;;;15.50;70.70;;;;;;4991404;28;96634;-52
2021/07/10 02:20:55;;;;;;;6.28;5.13;;;15.50;70.70;;;;;;4990064;28;95448;-54
2021/07/10 02:23:26;;;;;;;5.20;4.57;;;15.50;70.70;;;;;;4991577;28;95523;-54
2021/07/10 02:25:57;;;;;;;;;;;15.50;71.30;;;;;;4993503;28;95861;-50
2021/07/10 02:28:30;;;;;;;5.40;4.80;;;15.50;70.70;;;;;;4996995;28;95800;-52
2021/07/10 02:31:00;;;;;;;6.45;5.38;;;15.60;70.80;;;;;;4992082;28;95465;-52
2021/07/10 02:33:31;;;;;;;5.15;4.60;;;15.60;70.70;;;;;;4979041;28;95383;-50
2021/07/10 02:36:03;;;;;;;5.43;4.90;;;15.50;70.60;;;;;;4994959;28;95255;-51
2021/07/10 02:38:34;;;;;;;6.07;5.40;;;15.60;70.70;;;;;;4993398;28;96116;-50
2021/07/10 02:41:05;;;;;;;5.15;4.65;;;15.50;70.60;;;;;;4992627;28;95929;-51
2021/07/10 02:43:36;;;;;;;5.28;4.78;;;15.50;70.60;;;;;;4981177;28;96129;-53
2021/07/10 02:46:08;;;;;;;5.70;5.17;;;15.50;70.60;;;;;;4982588;28;95543;-50
2021/07/10 02:48:40;;;;;;;4.72;4.25;;;15.50;70.70;;;;;;4995023;28;95947;-53
2021/07/10 02:51:11;;;;;;;5.45;4.13;;;15.50;70.60;;;;;;4993089;28;96072;-52
2021/07/10 02:53:42;;;;;;;6.45;5.15;;;15.50;70.60;;;;;;4988849;28;95599;-52
2021/07/10 02:56:13;;;;;;;4.38;3.90;;;15.60;70.70;;;;;;4978078;28;95279;-50
2021/07/10 02:58:44;;;;;;;5.15;4.40;;;15.50;71.30;;;;;;4973163;28;96659;-53
2021/07/10 03:01:16;;;;;;;5.65;5.03;;;15.60;70.70;;;;;;4986812;28;95901;-53
2021/07/10 03:03:47;;;;;;;4.80;4.07;;;15.60;70.70;;;;;;4989051;28;95962;-51
2021/07/10 03:06:18;;;;;;;4.18;3.80;;;15.50;70.60;;;;;;4991758;28;95842;-49
2021/07/10 03:08:50;;;;;;;4.60;4.00;;;15.60;70.70;;;;;;4995553;28;95884;-50
2021/07/10 03:11:21;;;;;;;5.03;4.53;;;15.50;70.60;;;;;;4988442;28;95333;-53
2021/07/10 03:13:52;;;;;;;4.88;4.20;;;15.60;70.60;;;;;;4988495;28;95664;-52
2021/07/10 03:16:21;;;;;;;5.53;4.45;;;15.60;70.70;;;;;;4998563;28;95832;-51
2021/07/10 03:18:51;;;;;;;5.47;4.97;;;15.60;70.80;;;;;;4990670;28;95996;-53
2021/07/10 03:21:21;;;;;;;4.55;4.05;;;15.60;70.70;;;;;;4989152;28;95955;-52
2021/07/10 03:23:54;;;;;;;5.63;4.45;;;15.60;70.70;;;;;;4990429;28;95368;-53
2021/07/10 03:26:26;;;;;;;5.13;4.60;;;15.60;70.70;;;;;;4989291;28;97917;-53
2021/07/10 03:28:58;;;;;;;5.35;4.82;;;15.60;70.70;;;;;;4989822;28;96117;-53
2021/07/10 03:31:29;;;;;;;5.10;4.60;;;15.50;70.80;;;;;;4988519;28;96000;-54
2021/07/10 03:33:59;;;;;;;4.43;4.03;;;15.60;70.80;;;;;;4992313;28;95966;-51
2021/07/10 03:36:30;;;;;;;5.10;4.60;;;15.60;70.80;;;;;;4988345;28;95288;-52
2021/07/10 03:39:03;;;;;;;5.18;4.65;;;15.60;70.80;;;;;;5002736;27;96093;-51
2021/07/10 03:41:36;;;;;;;4.85;4.40;;;15.60;70.90;;;;;;4994109;28;95291;-53
2021/07/10 03:44:08;;;;;;;4.53;4.13;;;15.60;70.80;;;;;;4995102;28;95972;-49
2021/07/10 03:46:39;;;;;;;4.20;3.80;;;15.50;70.80;;;;;;4991334;28;97250;-51
2021/07/10 03:49:09;;;;;;;5.10;4.43;;;15.60;70.90;;;;;;4994292;28;96375;-53
2021/07/10 03:51:39;;;;;;;5.07;4.55;;;15.50;70.80;;;;;;4989046;28;95896;-54
2021/07/10 03:54:10;;;;;;;5.13;4.63;;;15.60;70.90;;;;;;4986608;28;96343;-51
2021/07/10 03:56:41;;;;;;;5.10;4.30;;;15.60;70.80;;;;;;4989507;28;95543;-50
2021/07/10 03:59:12;;;;;;;5.57;4.93;;;15.60;70.90;;;;;;4992519;28;96598;-51
2021/07/10 04:01:45;;;;;;;5.22;4.60;;;15.60;70.90;;;;;;4985611;28;96193;-52
2021/07/10 04:04:16;;;;;;;4.72;4.30;;;15.60;70.90;;;;;;4987704;28;95335;-53
2021/07/10 04:06:47;;;;;;;6.15;4.60;;;15.60;70.90;;;;;;5009098;28;95703;-50
2021/07/10 04:09:18;;;;;;;4.60;3.90;;;15.60;70.90;;;;;;4991088;28;96531;-51
2021/07/10 04:11:49;;;;;;;5.60;4.70;;;15.60;70.90;;;;;;4987847;28;96070;-50
2021/07/10 04:14:20;;;;;;;5.93;4.77;;;15.60;70.90;;;;;;4976040;28;96629;-53
2021/07/10 04:16:51;;;;;;;4.88;4.28;;;15.60;70.90;;;;;;4985509;28;95459;-52
2021/07/10 04:19:22;;;;;;;;;;;15.60;70.90;;;;;;4980698;28;95844;-50
2021/07/10 04:21:54;;;;;;;5.80;4.38;;;15.60;70.90;;;;;;4990144;28;95357;-51
2021/07/10 04:24:25;;;;;;;4.57;4.15;;;15.70;71.00;;;;;;4989602;28;95743;-51
2021/07/10 04:26:56;;;;;;;4.68;3.95;;;15.70;71.00;;;;;;4989514;28;95781;-53
2021/07/10 04:29:27;;;;;;;5.40;4.07;;;15.70;71.00;;;;;;4987845;28;96298;-53
2021/07/10 04:31:57;;;;;;;4.30;3.88;;;15.70;70.90;;;;;;4993312;28;96071;-51
2021/07/10 04:34:27;;;;;;;4.95;4.07;;;15.80;71.00;;;;;;4988071;28;96193;-53
2021/07/10 04:36:57;;;;;;;4.95;3.95;;;15.70;70.90;;;;;;5000576;28;95664;-50
2021/07/10 04:39:28;;;;;;;4.97;4.32;;;15.80;70.90;;;;;;4986525;28;95916;-53
2021/07/10 04:42:00;;;;;;;5.13;4.63;;;15.80;70.90;;;;;;4993201;28;96209;-51
2021/07/10 04:44:31;;;;;;;4.72;4.22;;;15.80;70.90;;;;;;4983659;28;95976;-54
2021/07/10 04:47:01;;;;;;;4.78;4.28;;;15.80;70.90;;;;;;4990024;28;95813;-50
2021/07/10 04:49:32;;;;;;;5.10;4.60;;;15.80;70.80;;;;;;4984165;28;96850;-52
2021/07/10 04:52:02;;;;;;;5.07;4.28;;;15.80;70.80;;;;;;4978185;28;95825;-50
2021/07/10 04:54:34;;;;;;;4.97;4.43;;;15.80;70.80;;;;;;4990533;28;95335;-49
2021/07/10 04:57:05;;;;;;;6.22;4.93;;;15.90;70.80;;;;;;4998290;28;97984;-51
2021/07/10 04:59:36;;;;;;;4.40;4.00;;;15.90;70.80;;;;;;5002117;28;98013;-50
2021/07/10 05:02:07;;;;;;;4.20;3.80;;;16.00;70.80;;;;;;4980468;28;95416;-51
2021/07/10 05:04:37;;;;;;;3.67;3.37;;;15.90;70.80;;;;;;4988583;28;95322;-52
2021/07/10 05:07:08;;;;;;;4.80;4.00;;;16.00;70.80;;;;;;4992192;28;96015;-53
2021/07/10 05:09:40;;;;;;;5.20;4.30;;;16.00;70.80;;;;;;4988363;28;95826;-52
2021/07/10 05:12:11;;;;;;;5.35;4.85;;;16.00;70.80;;;;;;4986587;28;95705;-53
2021/07/10 05:14:41;;;;;;;5.63;4.82;;;16.00;70.80;;;;;;4988088;28;95600;-51
2021/07/10 05:17:10;;;;;;;5.25;4.75;;;16.00;70.80;;;;;;4981917;28;96498;-50
2021/07/10 05:19:40;;;;;;;4.68;3.75;;;16.00;70.80;;;;;;4990001;28;95763;-54
2021/07/10 05:22:11;;;;;;;3.92;3.58;;;16.00;70.80;;;;;;4988030;28;102038;-50
2021/07/10 05:24:42;;;;;;;4.23;3.83;;;16.10;70.80;;;;;;4991195;28;95618;-51
2021/07/10 05:27:15;;;;;;;3.80;3.50;;;16.10;70.90;;;;;;4991144;28;95800;-50
2021/07/10 05:29:45;;;;;;;5.13;4.13;;;16.10;70.70;;;;;;4998056;28;95928;-53
2021/07/10 05:32:18;;;;;;;4.13;3.72;;;16.10;70.80;;;;;;4982774;28;96012;-51
2021/07/10 05:34:48;;;;;;;4.30;3.90;;;16.10;70.80;;;;;;4986749;28;95729;-51
2021/07/10 05:37:19;;;;;;;3.87;3.37;;;16.10;70.80;;;;;;4986861;28;96536;-51
2021/07/10 05:39:52;;;;;;;5.22;3.85;;;16.10;70.80;;;;;;4991296;28;95939;-50
2021/07/10 05:42:23;;;;;;;4.15;3.75;;;16.10;70.80;;;;;;4989323;27;97080;-52
2021/07/10 05:44:53;;;;;;;;;;;16.10;70.80;;;;;;4994151;28;95391;-52
2021/07/10 05:47:23;;;;;;;4.38;3.65;;;16.20;70.90;;;;;;4987198;28;95799;-49
2021/07/10 05:49:53;;;;;;;4.13;3.40;;;16.20;70.90;;;;;;4993688;28;98354;-52
2021/07/10 05:52:23;;;;;;;3.75;3.45;;;16.10;70.80;;;;;;4988784;28;95885;-50
2021/07/10 05:54:55;;;;;;;5.40;3.88;;;16.20;70.90;;;;;;5002665;28;95911;-51
2021/07/10 05:57:27;;;;;;;3.95;3.55;;;16.20;70.90;;;;;;5000975;28;95547;-51
2021/07/10 06:00:00;;;;;;;3.72;3.40;;;16.20;70.90;;;;;;5000543;28;98198;-51
2021/07/10 06:02:31;;;;;;;4.22;3.63;;;16.10;70.90;;;;;;4991398;28;95579;-51
2021/07/10 06:05:05;;;;;;;3.53;3.22;;;16.20;71.00;;;;;;4989644;28;95744;-51
2021/07/10 06:07:38;;;;;;;5.55;4.30;;;16.20;71.00;;;;;;4990626;28;95835;-52
2021/07/10 06:10:11;;;;;;;4.10;3.70;;;16.20;71.00;;;;;;4988520;28;95850;-50
2021/07/10 06:12:43;;;;;;;5.07;3.67;;;16.10;71.00;;;;;;4995147;28;95396;-51
2021/07/10 06:15:13;;;;;;;5.90;4.25;;;16.10;71.00;;;;;;4989498;28;95908;-52
2021/07/10 06:17:45;;;;;;;8.15;4.60;;;16.10;71.10;;;;;;4996123;28;95962;-54
2021/07/10 06:20:18;;;;;;;4.18;3.78;;;16.20;71.00;;;;;;4991421;28;95878;-52
2021/07/10 06:22:49;;;;;;;4.90;3.67;;;16.20;71.00;;;;;;4999407;28;96054;-54
2021/07/10 06:25:21;;;;;;;5.15;4.13;;;16.20;70.90;;;;;;4990658;28;95264;-52
2021/07/10 06:27:52;;;;;;;5.20;4.00;;;16.20;70.90;;;;;;4991506;28;95787;-51
2021/07/10 06:30:23;;;;;;;5.20;4.20;;;16.30;71.00;;;;;;4987934;28;95808;-54
2021/07/10 06:32:54;;;;;;;4.05;3.60;;;16.20;70.90;;;;;;4973806;28;96516;-54
2021/07/10 06:35:24;;;;;;;3.90;3.50;;;16.30;71.00;;;;;;4994891;28;95899;-52
2021/07/10 06:37:56;;;;;;;5.18;4.28;;;16.20;71.00;;;;;;5006060;28;95856;-54
2021/07/10 06:40:27;;;;;;;6.88;4.35;;;16.30;71.00;;;;;;5000206;28;96052;-52
2021/07/10 06:42:58;;;;;;;;;;;16.30;70.90;;;;;;5004103;28;95637;-52
2021/07/10 06:45:29;;;;;;;5.03;4.57;;;16.30;70.90;;;;;;4998684;28;95376;-53
2021/07/10 06:48:01;;;;;;;5.80;5.07;;;16.30;70.90;;;;;;4993016;28;96039;-52
2021/07/10 06:50:31;;;;;;;6.15;4.57;;;16.40;70.90;;;;;;5017542;27;98002;-53
2021/07/10 06:53:02;;;;;;;5.93;4.60;;;16.40;70.80;;;;;;5005018;28;96012;-53
2021/07/10 06:55:34;;;;;;;6.63;4.70;;;16.30;70.80;;;;;;4991526;28;97041;-51
2021/07/10 06:58:07;;;;;;;6.65;4.78;;;16.40;71.00;;;;;;4990064;28;95941;-54
2021/07/10 07:00:38;;;;;;;4.85;4.15;;;16.30;71.00;;;;;;4986982;28;95859;-54
2021/07/10 07:03:09;;;;;;;;;;;16.30;71.10;;;;;;4990729;28;95299;-51
2021/07/10 07:05:39;;;;;;;5.72;5.13;;;16.30;71.10;;;;;;5011844;28;95376;-52
2021/07/10 07:08:09;;;;;;;8.23;4.70;;;16.30;71.10;;;;;;4992738;28;95508;-56
2021/07/10 07:10:41;;;;;;;6.60;4.97;;;16.30;71.20;;;;;;4993524;28;95859;-52
2021/07/10 07:13:11;;;;;;;;;;;16.30;71.20;;;;;;4988538;28;95777;-51
2021/07/10 07:15:43;;;;;;;9.38;5.95;;;16.30;71.30;;;;;;4985508;28;96423;-49
2021/07/10 07:18:15;;;;;;;7.88;6.07;;;16.30;71.30;;;;;;4996338;28;95278;-54
2021/07/10 07:21:06;;;;;;;11.73;7.13;;;16.30;71.50;;;;;;5000655;28;95863;-56
2021/07/10 07:23:37;;;;;;;10.43;7.05;;;16.30;71.60;;;;;;4990479;28;95688;-52
2021/07/10 07:26:07;;;;;;;;;;;16.30;71.80;;;;;;4997256;28;95812;-52
2021/07/10 07:28:39;;;;;;;11.15;8.00;;;16.30;71.70;;;;;;5003884;28;96436;-52
2021/07/10 07:31:09;;;;;;;8.03;7.10;;;16.30;71.80;;;;;;4994361;28;96689;-53
2021/07/10 07:33:39;;;;;;;12.23;7.85;;;16.30;71.90;;;;;;4994005;28;95911;-51
2021/07/10 07:36:09;;;;;;;11.05;7.70;;;16.30;72.10;;;;;;4993831;28;95925;-54
2021/07/10 07:38:40;;;;;;;14.48;8.07;;;16.30;72.20;;;;;;4990789;28;95973;-52
2021/07/10 07:41:11;;;;;;;10.70;8.00;;;16.30;72.50;;;;;;4995982;28;95760;-55
2021/07/10 07:43:43;;;;;;;11.85;8.65;;;16.20;72.40;;;;;;4995897;28;95423;-47
2021/07/10 07:46:14;;;;;;;9.45;6.93;;;16.20;72.40;;;;;;4987614;28;96055;-61
2021/07/10 07:48:45;;;;;;;12.15;8.52;;;16.20;72.50;;;;;;4990752;28;95617;-60
2021/07/10 07:51:18;;;;;;;10.10;6.93;;;16.20;72.40;;;;;;4996720;28;96025;-52
2021/07/10 07:53:51;;;;;;;9.75;7.15;;;16.20;72.30;;;;;;5004267;27;95791;-51
2021/07/10 07:56:21;;;;;;;8.93;7.65;;;16.20;72.30;;;;;;4992871;28;95493;-52
2021/07/10 07:58:52;;;;;;;8.98;7.45;;;16.20;72.30;;;;;;4990751;28;95910;-58
2021/07/10 08:01:23;;;;;;;;;;;16.10;72.20;;;;;;4991834;28;98329;-52
2021/07/10 08:03:54;;;;;;;;;;;16.10;72.10;;;;;;4987946;28;95737;-59
2021/07/10 08:06:25;;;;;;;9.75;6.60;;;16.10;72.10;;;;;;4992670;28;95587;-58
2021/07/10 08:08:56;;;;;;;11.15;8.13;;;16.10;72.00;;;;;;5002527;28;95550;-59
2021/07/10 08:11:29;;;;;;;13.38;7.18;;;16.10;72.00;;;;;;4997580;28;95972;-56
2021/07/10 08:13:59;;;;;;;;;;;16.10;72.30;;;;;;4988001;28;95741;-56
2021/07/10 08:16:29;;;;;;;8.65;6.75;;;16.10;72.20;;;;;;5006995;28;95795;-56
2021/07/10 08:19:00;;;;;;;;;;;16.00;72.10;;;;;;4994579;28;95826;-50
2021/07/10 08:21:33;;;;;;;9.02;6.43;;;16.00;72.10;;;;;;4999737;28;96389;-56
2021/07/10 08:24:04;;;;;;;7.50;6.75;;;16.00;72.00;;;;;;4997536;28;95783;-56
2021/07/10 08:26:35;;;;;;;;;;;16.00;72.00;;;;;;5000379;28;96027;-56
2021/07/10 08:29:06;;;;;;;10.57;7.40;;;16.00;72.00;;;;;;4989379;28;95596;-53
2021/07/10 08:31:36;;;;;;;10.52;8.40;;;16.00;72.00;;;;;;4972730;28;97878;-59
2021/07/10 08:34:08;;;;;;;8.27;7.20;;;15.90;72.00;;;;;;4976020;28;95308;-58
2021/07/10 08:36:39;;;;;;;9.93;7.35;;;16.00;72.00;;;;;;4987295;28;95979;-59
2021/07/10 08:39:10;;;;;;;11.10;7.82;;;15.90;72.00;;;;;;4987351;28;95409;-56
2021/07/10 08:41:48;;;;;;;10.05;7.88;;;15.90;72.00;;;;;;4991888;28;95910;-58
2021/07/10 08:44:21;;;;;;;8.48;7.45;;;15.90;72.00;;;;;;4997489;27;95461;-56
2021/07/10 08:46:53;;;;;;;10.40;7.38;;;15.90;72.00;;;;;;4994687;28;95808;-58
2021/07/10 08:49:23;;;;;;;8.52;7.63;;;15.90;72.00;;;;;;4990253;28;96799;-58
2021/07/10 08:51:54;;;;;;;10.93;7.88;;;15.90;72.00;;;;;;5001605;28;95902;-57
2021/07/10 08:54:25;;;;;;;9.98;7.82;;;15.90;72.10;;;;;;4966245;28;97647;-58
2021/07/10 08:56:56;;;;;;;8.88;7.38;;;15.90;72.00;;;;;;4988481;28;95981;-57
2021/07/10 08:59:27;;;;;;;8.75;7.32;;;15.90;72.00;;;;;;4990507;28;96109;-53
2021/07/10 09:02:02;;;;;;;9.23;7.38;;;15.90;72.00;;;;;;4993250;28;96794;-57
2021/07/10 09:04:33;;;;;;;8.68;7.18;;;15.90;72.10;;;;;;4969993;28;95362;-55
2021/07/10 09:07:04;;;;;;;11.15;7.18;;;15.90;72.00;;;;;;4992899;28;95705;-56
2021/07/10 09:09:47;;;;;;;8.07;6.80;;;15.80;72.00;;;;;;4978568;28;96065;-59
2021/07/10 09:12:30;;;;;;;10.20;7.45;;;15.90;72.00;;;;;;4994702;28;95878;-58
2021/07/10 09:15:20;;;;;;;10.60;7.82;;;15.80;72.00;;;;;;4989736;28;95608;-52
2021/07/10 09:17:50;;;;;;;7.72;6.53;;;15.80;72.00;;;;;;4973798;28;97595;-57
2021/07/10 09:20:24;;;;;;;8.35;7.03;;;15.90;72.00;;;;;;4969585;28;95560;-57
2021/07/10 09:22:55;;;;;;;8.82;7.72;;;15.80;72.00;;;;;;4961717;28;95913;-58
2021/07/10 09:25:32;;;;;;;10.07;7.70;;;15.80;72.60;;;;;;4968562;28;97182;-59
2021/07/10 09:28:05;;;;;;;10.23;7.55;;;15.80;72.00;;;;;;4970987;28;95949;-57
2021/07/10 09:30:38;;;;;;;8.63;7.38;;;15.80;72.00;;;;;;4970975;28;95863;-53
2021/07/10 09:33:23;;;;;;;8.65;7.03;;;15.80;72.00;;;;;;4971966;28;97235;-58
2021/07/10 09:36:00;;;;;;;8.88;7.07;;;15.80;72.00;;;;;;4985061;28;96148;-59
2021/07/10 09:38:34;;;;;;;8.98;7.22;;;15.80;72.00;;;;;;4973721;28;95652;-58
2021/07/10 09:41:13;;;;;;;9.10;7.47;;;15.80;72.00;;;;;;4973210;28;95577;-56
2021/07/10 09:43:44;;;;;;;9.52;7.25;;;15.70;72.00;;;;;;4969102;28;95958;-56
2021/07/10 09:46:26;;;;;;;9.82;7.88;;;15.80;72.00;;;;;;4976620;28;95783;-55
2021/07/10 09:48:57;;;;;;;9.55;6.90;;;15.70;72.00;;;;;;4991160;28;95871;-56
2021/07/10 09:51:28;;;;;;;8.10;6.57;;;15.70;72.00;;;;;;4998450;28;95938;-58
2021/07/10 09:53:59;;;;;;;9.60;7.80;;;15.70;72.00;;;;;;4987686;28;95889;-56
2021/07/10 09:56:32;;;;;;;8.77;7.13;;;15.80;72.00;;;;;;5009784;28;96712;-55
2021/07/10 09:59:24;;;;;;;8.82;6.85;;;15.70;71.90;;;;;;4976577;28;97426;-56
2021/07/10 10:01:56;;;;;;;7.82;6.15;;;15.70;72.00;;;;;;4988047;28;95764;-56
2021/07/10 10:04:29;;;;;;;7.80;6.15;;;15.80;72.00;;;;;;4984964;28;96761;-57
2021/07/10 10:07:03;;;;;;;9.52;7.47;;;15.70;72.00;;;;;;4989889;28;97621;-58
2021/07/10 10:09:35;;;;;;;8.85;7.18;;;15.70;72.00;;;;;;4977679;28;95986;-49
2021/07/10 10:12:17;;;;;;;9.00;7.25;;;15.70;72.00;;;;;;4993576;28;95667;-58
2021/07/10 10:14:52;;;;;;;7.97;6.90;;;15.70;72.00;;;;;;4972927;28;96034;-55
2021/07/10 10:17:25;;;;;;;7.95;6.68;;;15.70;72.00;;;;;;4988963;28;95808;-49
2021/07/10 10:19:56;;;;;;;10.63;6.38;;;15.70;72.00;;;;;;4991678;28;96797;-55
2021/07/10 10:22:26;;;;;;;9.07;7.10;;;15.70;71.90;;;;;;4995143;28;95489;-56
2021/07/10 10:24:57;;;;;;;7.97;6.07;;;15.70;71.90;;;;;;4992339;28;95937;-49
2021/07/10 10:27:28;;;;;;;8.18;6.72;;;15.70;71.90;;;;;;4991861;28;95972;-50
2021/07/10 10:29:59;;;;;;;8.95;6.78;;;15.70;72.00;;;;;;5005690;27;95414;-49
2021/07/10 10:32:29;;;;;;;7.78;6.47;;;15.70;71.90;;;;;;4991609;28;99074;-55
2021/07/10 10:34:59;;;;;;;7.68;6.13;;;15.70;71.90;;;;;;4989204;28;95857;-54
2021/07/10 10:37:30;;;;;;;8.43;6.25;;;15.60;71.90;;;;;;4992137;28;95881;-50
2021/07/10 10:40:02;;;;;;;7.57;6.25;;;15.60;71.90;;;;;;4990041;28;95881;-56
2021/07/10 10:42:34;;;;;;;8.05;6.78;;;15.70;71.90;;;;;;5015065;27;96152;-56
2021/07/10 10:45:07;;;;;;;7.03;6.20;;;15.70;71.90;;;;;;4998631;28;97392;-56
2021/07/10 10:47:50;;;;;;;7.63;6.10;;;15.70;71.90;;;;;;4991475;28;95912;-53
2021/07/10 10:50:26;;;;;;;8.27;6.43;;;15.70;71.90;;;;;;4995718;28;95633;-54
2021/07/10 10:53:02;;;;;;;7.70;6.32;;;15.60;71.80;;;;;;4992752;28;95647;-57
2021/07/10 10:55:33;;;;;;;9.27;7.05;;;15.60;71.80;;;;;;4988591;28;95876;-57
2021/07/10 10:58:30;;;;;;;7.93;5.97;;;15.60;71.80;;;;;;5000029;28;95636;-52
2021/07/10 11:01:09;;;;;;;8.07;6.50;;;15.60;71.80;;;;;;4986165;28;95728;-54
2021/07/10 11:03:42;;;;;;;8.15;6.40;;;15.60;71.80;;;;;;4976495;28;95640;-49
2021/07/10 11:06:33;;;;;;;8.15;6.60;;;15.60;71.90;;;;;;4992274;28;97167;-56
2021/07/10 11:09:05;;;;;;;7.43;6.32;;;15.60;71.80;;;;;;4989400;28;95772;-53
2021/07/10 11:11:37;;;;;;;;;;;15.60;71.90;;;;;;4970557;28;96506;-50
2021/07/10 11:14:11;;;;;;;7.88;6.32;;;15.60;71.80;;;;;;4990668;28;95841;-51
2021/07/10 11:17:12;;;;;;;6.45;5.63;;;15.60;71.80;;;;;;4991530;28;96532;-57
2021/07/10 11:19:48;;;;;;;6.75;6.05;;;15.60;71.90;;;;;;4988947;28;95760;-52
2021/07/10 11:22:55;;;;;;;7.95;6.20;;;15.60;71.90;;;;;;4984421;28;95639;-52
2021/07/10 11:25:49;;;;;;;9.15;7.10;;;15.50;71.80;;;;;;4977707;28;95971;-56
2021/07/10 11:28:42;;;;;;;6.53;5.90;;;15.60;71.80;;;;;;4989276;28;95902;-53
2021/07/10 11:31:17;;;;;;;8.05;6.43;;;15.50;71.80;;;;;;4987264;28;96354;-50
2021/07/10 11:34:05;;;;;;;7.57;6.10;;;15.50;71.80;;;;;;5003351;28;95895;-57
2021/07/10 11:36:42;;;;;;;7.53;6.70;;;15.50;71.80;;;;;;4970830;28;96164;-51
2021/07/10 11:39:30;;;;;;;6.93;6.22;;;15.50;71.80;;;;;;4977949;28;95875;-52
2021/07/10 11:42:22;;;;;;;8.93;7.00;;;15.50;71.80;;;;;;4987706;28;96006;-51
2021/07/10 11:45:15;;;;;;;7.15;6.00;;;15.50;71.80;;;;;;4979323;28;96054;-50
2021/07/10 11:47:52;;;;;;;6.95;5.53;;;15.50;71.80;;;;;;4995449;28;95680;-51
2021/07/10 11:50:23;;;;;;;7.45;6.43;;;15.50;71.80;;;;;;4996088;28;95874;-52
2021/07/10 11:53:01;;;;;;;6.93;6.15;;;15.50;71.80;;;;;;5006360;28;97941;-50
2021/07/10 11:55:40;;;;;;;7.22;6.45;;;15.50;71.80;;;;;;5002154;28;95670;-51
2021/07/10 11:58:16;;;;;;;7.65;5.95;;;15.50;71.80;;;;;;4988681;28;95802;-50
2021/07/10 12:00:48;;;;;;;7.38;6.68;;;15.50;71.80;;;;;;4984452;28;99388;-51
2021/07/10 12:03:24;;;;;;;7.22;5.88;;;15.40;71.80;;;;;;4992223;28;95835;-52
2021/07/10 12:05:58;;;;;;;8.27;6.35;;;15.40;71.80;;;;;;4989694;28;95493;-50
2021/07/10 12:08:30;;;;;;;6.80;6.03;;;15.40;71.80;;;;;;4988680;28;95581;-50
2021/07/10 12:11:00;;;;;;;7.13;6.43;;;15.40;71.80;;;;;;4990451;28;96581;-54
2021/07/10 12:13:32;;;;;;;7.25;6.35;;;15.40;71.80;;;;;;4990233;28;95950;-50
2021/07/10 12:16:06;;;;;;;7.10;6.28;;;15.40;71.80;;;;;;4990395;28;95371;-51
2021/07/10 12:18:39;;;;;;;7.95;6.13;;;15.40;71.80;;;;;;4994162;28;95607;-50
2021/07/10 12:21:10;;;;;;;;;;;15.40;71.80;;;;;;4990565;28;95947;-50
2021/07/10 12:23:43;;;;;;;7.50;6.50;;;15.40;71.90;;;;;;4990381;28;95347;-51
2021/07/10 12:26:19;;;;;;;6.47;5.63;;;15.40;71.90;;;;;;4982118;28;95812;-54
2021/07/10 12:28:54;;;;;;;10.18;7.65;;;15.30;72.00;;;;;;4976931;28;97848;-51
2021/07/10 12:31:35;;;;;;;10.85;9.32;;;15.40;72.40;;;;;;4981676;28;96079;-54
2021/07/10 12:34:15;;;;;;;10.18;8.10;;;15.40;72.50;;;;;;4967184;28;95843;-50
2021/07/10 12:36:47;;;;;;;9.43;8.23;;;15.40;72.70;;;;;;4973879;28;95278;-49
2021/07/10 12:39:19;;;;;;;;;;;15.60;72.80;;;;;;4979536;28;96306;-51
2021/07/10 12:41:55;;;;;;;9.05;7.90;;;15.70;72.80;;;;;;4981329;28;96517;-48
2021/07/10 12:44:28;;;;;;;9.23;7.57;;;15.90;72.60;;;;;;4964145;28;97558;-49
2021/07/10 12:47:04;;;;;;;7.72;6.88;;;16.10;72.30;;;;;;4986889;28;98746;-50
2021/07/10 12:49:45;;;;;;;7.78;6.55;;;16.30;71.90;;;;;;4992282;28;96012;-50
2021/07/10 12:52:23;;;;;;;7.43;6.55;;;16.50;71.40;;;;;;4996333;28;96531;-51
2021/07/10 12:54:59;;;;;;;7.63;6.82;;;16.70;71.10;;;;;;4994440;28;96822;-50
2021/07/10 12:57:40;;;;;;;7.88;6.63;;;16.80;70.80;;;;;;4997435;28;96366;-50
2021/07/10 13:00:27;;;;;;;7.00;6.18;;;16.90;70.60;;;;;;4992597;28;95357;-50
2021/07/10 13:03:00;;;;;;;6.80;6.03;;;17.00;70.30;;;;;;4998839;28;102489;-53
2021/07/10 13:05:34;;;;;;;6.47;5.72;;;17.10;70.20;;;;;;4991978;28;96066;-52
2021/07/10 13:08:24;;;;;;;7.15;6.18;;;17.20;69.90;;;;;;4998911;28;97036;-48
2021/07/10 13:11:01;;;;;;;9.50;7.75;;;17.30;69.70;;;;;;4999701;28;95934;-52
2021/07/10 13:13:49;;;;;;;7.25;6.10;;;17.40;69.60;;;;;;5005344;28;95991;-51
2021/07/10 13:16:20;;;;;;;8.00;6.38;;;17.50;69.30;;;;;;5011090;27;96047;-51
2021/07/10 13:18:59;;;;;;;9.98;7.00;;;17.60;69.20;;;;;;4987220;28;96776;-51
2021/07/10 13:21:31;;;;;;;6.72;5.82;;;17.70;69.10;;;;;;4999326;28;95616;-49